Bass Brook, Minnesota
Current Conditions -  °F | °C
As of 2:55 PM on Thursday 27 Nov 2014 (Local Time) from KGPZ Reporting Station
Clear Clear  
Wind Chill:   Ceiling: Unl
Heat Index:   Visibility: 10mi
Dew Point: -8°   Wind: 0mph
Humidity: 56%   Direction: NA
Pressure: 30.32"   Gusts: NA
Location:  47.2371°N, 93.6985°W
Report Text: KGPZ 272055Z AUTO 00000KT 10SM CLR M15/M22 A3032 RMK AO1 57024
Loading
Personal Weather Stations






























Interactive Weather Map New forecast layout! Learn more

10-Day Weather Forecast

Advertisements
Track Severe Weather on mobile